createdAt,value
2023-08-07T00:02:11.857Z,17.73
2023-08-07T00:04:58.894Z,17.74
2023-08-07T00:07:45.925Z,17.72
2023-08-07T00:10:33.054Z,17.72
2023-08-07T00:13:19.971Z,17.72
2023-08-07T00:16:06.919Z,17.69
2023-08-07T00:18:57.126Z,17.69
2023-08-07T00:21:44.209Z,17.68
2023-08-07T00:24:31.897Z,17.66
2023-08-07T00:27:18.777Z,17.65
2023-08-07T00:30:06.156Z,17.61
2023-08-07T00:32:53.084Z,17.58
2023-08-07T00:35:39.997Z,17.56
2023-08-07T00:38:26.849Z,17.54
2023-08-07T00:41:13.732Z,17.51
2023-08-07T00:44:01.111Z,17.48
2023-08-07T00:46:48.245Z,17.47
2023-08-07T00:49:35.367Z,17.46
2023-08-07T00:52:22.194Z,17.45
2023-08-07T00:55:09.321Z,17.45
2023-08-07T00:57:56.236Z,17.43
2023-08-07T01:00:43.944Z,17.41
2023-08-07T01:03:31.033Z,17.39
2023-08-07T01:06:18.212Z,17.36
2023-08-07T01:09:05.302Z,17.35
2023-08-07T01:12:15.718Z,17.35
2023-08-07T01:15:17.636Z,17.36
2023-08-07T01:18:06.096Z,17.32
2023-08-07T01:20:53.156Z,17.32
2023-08-07T01:23:40.049Z,17.31
2023-08-07T01:26:27.034Z,17.31
2023-08-07T01:29:20.004Z,17.29
2023-08-07T01:32:09.301Z,17.27
2023-08-07T01:34:56.996Z,17.25
2023-08-07T01:37:44.410Z,17.21
2023-08-07T01:40:31.729Z,17.20
2023-08-07T01:43:20.156Z,17.19
2023-08-07T01:46:07.891Z,17.16
2023-08-07T01:48:54.854Z,17.16
2023-08-07T01:51:41.709Z,17.16
2023-08-07T01:54:28.601Z,17.15
2023-08-07T01:57:15.490Z,17.13
2023-08-07T02:00:02.361Z,17.10
2023-08-07T02:02:49.660Z,17.07
2023-08-07T02:05:36.624Z,17.06
2023-08-07T02:08:23.592Z,17.04
2023-08-07T02:11:10.426Z,17.02
2023-08-07T02:13:57.240Z,17.01
2023-08-07T02:16:44.121Z,17.00
2023-08-07T02:19:31.649Z,16.98
2023-08-07T02:22:18.585Z,16.97
2023-08-07T02:25:05.840Z,16.96
2023-08-07T02:27:52.657Z,16.94
2023-08-07T02:30:39.520Z,16.92
2023-08-07T02:33:26.330Z,16.91
2023-08-07T02:36:13.421Z,16.90
2023-08-07T02:39:00.268Z,16.88
2023-08-07T02:41:47.143Z,16.86
2023-08-07T02:44:34.002Z,16.86
2023-08-07T02:47:20.887Z,16.84
2023-08-07T02:50:08.137Z,16.83
2023-08-07T02:52:55.239Z,16.80
2023-08-07T02:55:44.892Z,16.80
2023-08-07T02:58:31.720Z,16.78
2023-08-07T03:01:18.950Z,16.77
2023-08-07T03:04:05.871Z,16.77
2023-08-07T03:06:52.930Z,16.74
2023-08-07T03:09:39.952Z,16.73
2023-08-07T03:12:26.870Z,16.70
2023-08-07T03:15:13.741Z,16.69
2023-08-07T03:18:00.687Z,16.68
2023-08-07T03:20:47.625Z,16.65
2023-08-07T03:23:34.504Z,16.62
2023-08-07T03:26:21.373Z,16.59
2023-08-07T03:29:08.228Z,16.59
2023-08-07T03:31:55.111Z,16.58
2023-08-07T03:34:41.977Z,16.57
2023-08-07T03:37:28.818Z,16.57
2023-08-07T03:40:15.690Z,16.55
2023-08-07T03:43:02.662Z,16.56
2023-08-07T03:45:55.602Z,16.54
2023-08-07T03:48:42.546Z,16.53
2023-08-07T03:51:30.956Z,16.51
2023-08-07T03:54:17.850Z,16.50
2023-08-07T03:57:04.940Z,16.47
2023-08-07T03:59:51.793Z,16.46
2023-08-07T04:02:38.678Z,16.45
2023-08-07T04:05:25.660Z,16.43
2023-08-07T04:08:12.511Z,16.42
2023-08-07T04:11:06.507Z,16.41
2023-08-07T04:13:53.414Z,16.42
2023-08-07T04:16:40.803Z,16.40
2023-08-07T04:19:27.949Z,16.37
2023-08-07T04:22:14.832Z,16.33
2023-08-07T04:25:02.194Z,16.33
2023-08-07T04:27:49.058Z,16.32
2023-08-07T04:30:36.023Z,16.30
2023-08-07T04:33:22.990Z,16.30
2023-08-07T04:36:09.837Z,16.28
2023-08-07T04:38:56.888Z,16.27
2023-08-07T04:41:43.821Z,16.23
2023-08-07T04:44:30.805Z,16.23
2023-08-07T04:47:17.708Z,16.21
2023-08-07T04:50:04.843Z,16.20
2023-08-07T04:52:51.792Z,16.18
2023-08-07T04:55:39.792Z,16.17
2023-08-07T04:58:26.676Z,16.16
2023-08-07T05:01:13.619Z,16.16
2023-08-07T05:04:00.611Z,16.14
2023-08-07T05:06:47.511Z,16.12
2023-08-07T05:09:34.353Z,16.11
2023-08-07T05:12:21.353Z,16.07
2023-08-07T05:15:08.561Z,16.05
2023-08-07T05:17:55.473Z,16.05
2023-08-07T05:20:42.657Z,16.04
2023-08-07T05:23:29.489Z,16.03
2023-08-07T05:26:17.765Z,16.03
2023-08-07T05:29:05.093Z,16.01
2023-08-07T05:31:51.974Z,15.99
2023-08-07T05:34:39.115Z,15.97
2023-08-07T05:37:26.045Z,15.97
2023-08-07T05:40:13.232Z,15.97
2023-08-07T05:43:00.129Z,15.97
2023-08-07T05:45:47.395Z,15.97
2023-08-07T05:48:34.296Z,15.95
2023-08-07T05:51:21.170Z,15.93
2023-08-07T05:54:08.364Z,15.90
2023-08-07T05:56:55.194Z,15.87
2023-08-07T05:59:42.242Z,15.87
2023-08-07T06:02:29.104Z,15.85
2023-08-07T06:05:17.358Z,15.83
2023-08-07T06:08:04.290Z,15.83
2023-08-07T06:10:51.115Z,15.82
2023-08-07T06:13:38.024Z,15.83
2023-08-07T06:16:25.067Z,15.83
2023-08-07T06:19:25.315Z,15.82
2023-08-07T06:22:18.303Z,15.83
2023-08-07T06:25:06.777Z,15.82
2023-08-07T06:27:53.662Z,15.80
2023-08-07T06:30:40.510Z,15.79
2023-08-07T06:33:27.464Z,15.79
2023-08-07T06:36:14.280Z,15.78
2023-08-07T06:39:01.185Z,15.78
2023-08-07T06:41:48.155Z,15.79
2023-08-07T06:44:35.232Z,15.78
2023-08-07T06:47:22.617Z,15.77
2023-08-07T06:50:10.015Z,15.76
2023-08-07T06:52:56.978Z,15.76
2023-08-07T06:55:44.265Z,15.75
2023-08-07T06:58:31.118Z,15.74
2023-08-07T07:01:18.454Z,15.72
2023-08-07T07:04:05.372Z,15.72
2023-08-07T07:06:52.312Z,15.72
2023-08-07T07:09:39.473Z,15.72
2023-08-07T07:12:26.402Z,15.73
2023-08-07T07:15:13.403Z,15.73
2023-08-07T07:18:00.881Z,15.70
2023-08-07T07:20:47.807Z,15.69
2023-08-07T07:23:34.769Z,15.69
2023-08-07T07:26:21.638Z,15.69
2023-08-07T07:29:08.493Z,15.68
2023-08-07T07:31:56.425Z,15.69
2023-08-07T07:34:43.694Z,15.69
2023-08-07T07:37:32.182Z,15.69
2023-08-07T07:40:19.004Z,15.69
2023-08-07T07:43:05.947Z,15.69
2023-08-07T07:45:52.837Z,15.68
2023-08-07T07:48:39.720Z,15.69
2023-08-07T07:51:27.578Z,15.69
2023-08-07T07:54:15.593Z,15.68
2023-08-07T07:57:02.642Z,15.69
2023-08-07T07:59:50.026Z,15.68
2023-08-07T08:02:44.225Z,15.68
2023-08-07T08:05:31.351Z,15.67
2023-08-07T08:08:18.236Z,15.67
2023-08-07T08:11:05.208Z,15.64
2023-08-07T08:13:52.546Z,15.64
2023-08-07T08:16:39.468Z,15.63
2023-08-07T08:19:30.876Z,15.63
2023-08-07T08:22:20.226Z,15.63
2023-08-07T08:25:07.849Z,15.62
2023-08-07T08:27:54.773Z,15.61
2023-08-07T08:30:42.882Z,15.61
2023-08-07T08:33:29.712Z,15.61
2023-08-07T08:36:16.620Z,15.62
2023-08-07T08:39:05.610Z,15.61
2023-08-07T08:41:53.180Z,15.61
2023-08-07T08:44:41.215Z,15.59
2023-08-07T08:47:28.429Z,15.58
2023-08-07T08:50:15.972Z,15.58
2023-08-07T08:53:04.067Z,15.58
2023-08-07T08:55:51.619Z,15.58
2023-08-07T08:58:39.746Z,15.56
2023-08-07T09:01:27.019Z,15.59
2023-08-07T09:04:14.683Z,15.58
2023-08-07T09:07:04.786Z,15.58
2023-08-07T09:09:52.052Z,15.58
2023-08-07T09:12:41.856Z,15.57
2023-08-07T09:15:30.959Z,15.57
2023-08-07T09:18:18.298Z,15.57
2023-08-07T09:21:05.190Z,15.57
2023-08-07T09:23:52.605Z,15.58
2023-08-07T09:26:40.080Z,15.59
2023-08-07T09:29:27.985Z,15.59
2023-08-07T09:32:14.953Z,15.59
2023-08-07T09:35:05.389Z,15.59
2023-08-07T09:37:52.552Z,15.59
2023-08-07T09:40:39.404Z,15.58
2023-08-07T09:43:26.297Z,15.59
2023-08-07T09:46:13.199Z,15.59
2023-08-07T09:49:00.426Z,15.58
2023-08-07T09:51:48.833Z,15.58
2023-08-07T09:54:36.570Z,15.57
2023-08-07T09:57:23.509Z,15.58
2023-08-07T10:00:12.631Z,15.57
2023-08-07T10:02:59.432Z,15.58
2023-08-07T10:05:46.716Z,15.56
2023-08-07T10:08:36.289Z,15.55
2023-08-07T10:11:24.277Z,15.56
2023-08-07T10:14:11.788Z,15.55
2023-08-07T10:16:58.913Z,15.56
2023-08-07T10:19:45.977Z,15.57
2023-08-07T10:22:33.454Z,15.58
2023-08-07T10:25:22.478Z,15.58
2023-08-07T10:28:10.131Z,15.57
2023-08-07T10:30:58.143Z,15.56
2023-08-07T10:33:45.362Z,15.57
2023-08-07T10:36:36.421Z,15.58
2023-08-07T10:39:23.745Z,15.60
2023-08-07T10:42:12.928Z,15.62
2023-08-07T10:45:02.356Z,15.61
2023-08-07T10:48:07.546Z,15.62
2023-08-07T10:51:04.976Z,15.61
2023-08-07T10:53:53.525Z,15.62
2023-08-07T10:56:45.030Z,15.62
2023-08-07T10:59:32.008Z,15.62
2023-08-07T11:02:26.990Z,15.63
2023-08-07T11:05:14.186Z,15.64
2023-08-07T11:08:01.178Z,15.63
2023-08-07T11:10:48.022Z,15.64
2023-08-07T11:13:35.017Z,15.66
2023-08-07T11:16:22.600Z,15.69
2023-08-07T11:19:09.675Z,15.72
2023-08-07T11:21:58.244Z,15.71
2023-08-07T11:24:46.938Z,15.74
2023-08-07T11:27:33.814Z,15.76
2023-08-07T11:30:20.768Z,15.77
2023-08-07T11:33:07.689Z,15.76
2023-08-07T11:35:55.571Z,15.77
2023-08-07T11:38:44.475Z,15.77
2023-08-07T11:41:33.265Z,15.79
2023-08-07T11:44:20.472Z,15.73
2023-08-07T11:47:07.446Z,15.72
2023-08-07T11:49:54.498Z,15.79
2023-08-07T11:52:41.413Z,15.85
2023-08-07T11:55:33.290Z,15.92
2023-08-07T11:58:20.647Z,15.94
2023-08-07T12:01:11.232Z,15.96
2023-08-07T12:04:10.072Z,15.95
2023-08-07T12:06:57.845Z,15.94
2023-08-07T12:09:45.325Z,15.92
2023-08-07T12:12:35.351Z,15.91
2023-08-07T12:15:22.346Z,15.89
2023-08-07T12:18:09.353Z,15.88
2023-08-07T12:21:07.734Z,15.87
2023-08-07T12:23:58.262Z,15.86
2023-08-07T12:26:45.166Z,15.84
2023-08-07T12:29:32.083Z,15.85
2023-08-07T12:32:18.954Z,15.84
2023-08-07T12:37:59.693Z,15.83
2023-08-07T12:40:46.575Z,15.83
2023-08-07T12:43:33.437Z,15.81
2023-08-07T12:49:10.501Z,15.82
2023-08-07T12:51:59.275Z,15.81
2023-08-07T12:54:46.087Z,15.81
2023-08-07T12:57:33.135Z,15.80
2023-08-07T13:00:20.216Z,15.81
2023-08-07T13:03:07.114Z,15.80
2023-08-07T13:05:53.997Z,15.81
2023-08-07T13:08:41.897Z,15.80
2023-08-07T13:11:28.948Z,15.79
2023-08-07T13:14:15.865Z,15.80
2023-08-07T13:17:02.755Z,15.79
2023-08-07T13:19:49.630Z,15.80
2023-08-07T13:22:44.464Z,15.79
2023-08-07T13:25:31.329Z,15.80
2023-08-07T13:28:19.283Z,15.81
2023-08-07T13:31:06.377Z,15.81
2023-08-07T13:33:53.341Z,15.81
2023-08-07T13:36:40.623Z,15.82
2023-08-07T13:39:27.495Z,15.82
2023-08-07T13:42:14.434Z,15.83
2023-08-07T13:45:01.324Z,15.82
2023-08-07T13:47:48.247Z,15.84
2023-08-07T13:50:35.290Z,15.83
2023-08-07T13:53:24.973Z,15.85
2023-08-07T13:56:13.799Z,15.84
2023-08-07T13:59:01.243Z,15.84
2023-08-07T14:01:48.137Z,15.85
2023-08-07T14:04:34.976Z,15.85
2023-08-07T14:07:21.823Z,15.85
2023-08-07T14:10:09.123Z,15.85
2023-08-07T14:12:57.171Z,15.86
2023-08-07T14:15:44.102Z,15.86
2023-08-07T14:18:31.071Z,15.77
2023-08-07T14:21:18.009Z,15.74
2023-08-07T14:24:04.968Z,15.73
2023-08-07T14:26:51.818Z,15.76
2023-08-07T14:32:30.417Z,15.84
2023-08-07T14:35:17.244Z,15.87
2023-08-07T14:38:04.128Z,15.91
2023-08-07T14:40:51.084Z,15.94
2023-08-07T14:43:37.918Z,15.96
2023-08-07T14:46:25.217Z,15.97
2023-08-07T14:49:12.363Z,16.01
2023-08-07T14:51:59.461Z,16.03
2023-08-07T14:54:46.589Z,16.04
2023-08-07T14:57:33.471Z,16.05
2023-08-07T15:00:21.283Z,16.07
2023-08-07T15:03:08.256Z,16.10
2023-08-07T15:05:55.144Z,16.11
2023-08-07T15:08:42.119Z,16.13
2023-08-07T15:11:29.242Z,16.11
2023-08-07T15:14:16.289Z,16.11
2023-08-07T15:17:03.354Z,16.10
2023-08-07T15:19:50.241Z,16.09
2023-08-07T15:22:37.139Z,16.08
2023-08-07T15:25:23.982Z,16.08
2023-08-07T15:28:10.943Z,16.08
2023-08-07T15:30:57.838Z,16.07
2023-08-07T15:33:48.504Z,16.08
2023-08-07T15:36:35.387Z,16.09
2023-08-07T15:39:22.222Z,16.09
2023-08-07T15:42:09.092Z,16.08
2023-08-07T15:44:55.939Z,16.09
2023-08-07T15:47:42.898Z,16.10
2023-08-07T15:50:31.454Z,16.12
2023-08-07T15:53:18.358Z,16.11
2023-08-07T15:56:05.261Z,16.10
2023-08-07T15:58:52.098Z,16.11
2023-08-07T16:01:39.023Z,16.14
2023-08-07T16:04:26.051Z,16.14
2023-08-07T16:07:13.017Z,16.15
2023-08-07T16:09:59.941Z,16.13
2023-08-07T16:12:47.038Z,16.13
2023-08-07T16:15:34.949Z,16.14
2023-08-07T16:18:21.869Z,16.14
2023-08-07T16:21:08.813Z,16.15
2023-08-07T16:23:55.693Z,16.16
2023-08-07T16:26:44.920Z,16.17
2023-08-07T16:29:32.187Z,16.18
2023-08-07T16:32:19.079Z,16.20
2023-08-07T16:35:06.965Z,16.19
2023-08-07T16:37:53.997Z,16.20
2023-08-07T16:40:42.451Z,16.20
2023-08-07T16:43:29.405Z,16.19
2023-08-07T16:46:18.034Z,16.19
2023-08-07T16:49:04.987Z,16.19
2023-08-07T16:51:55.187Z,16.19
2023-08-07T16:54:42.275Z,16.19
2023-08-07T16:57:29.128Z,16.20
2023-08-07T17:00:16.448Z,16.20
2023-08-07T17:03:03.836Z,16.21
2023-08-07T17:05:51.160Z,16.22
2023-08-07T17:08:38.451Z,16.23
2023-08-07T17:11:28.179Z,16.24
2023-08-07T17:14:17.220Z,16.24
2023-08-07T17:17:04.513Z,16.25
2023-08-07T17:19:54.749Z,16.24
2023-08-07T17:22:44.935Z,16.26
2023-08-07T17:25:32.857Z,16.26
2023-08-07T17:28:19.954Z,16.25
2023-08-07T17:31:07.329Z,16.26
2023-08-07T17:33:54.352Z,16.26
2023-08-07T17:36:41.441Z,16.29
2023-08-07T17:39:28.419Z,16.30
2023-08-07T17:42:15.366Z,16.28
2023-08-07T17:45:03.346Z,16.30
2023-08-07T17:47:50.580Z,16.29
2023-08-07T17:50:37.653Z,16.31
2023-08-07T17:53:24.554Z,16.32
2023-08-07T17:56:11.565Z,16.33
2023-08-07T17:58:58.484Z,16.32
2023-08-07T18:01:45.415Z,16.34
2023-08-07T18:04:32.416Z,16.35
2023-08-07T18:07:19.506Z,16.36
2023-08-07T18:10:08.739Z,16.36
2023-08-07T18:12:56.085Z,16.35
2023-08-07T18:15:42.919Z,16.36
2023-08-07T18:18:29.770Z,16.37
2023-08-07T18:21:16.673Z,16.35
2023-08-07T18:24:04.319Z,16.34
2023-08-07T18:26:51.203Z,16.31
2023-08-07T18:29:38.040Z,16.28
2023-08-07T18:32:25.050Z,16.25
2023-08-07T18:35:12.047Z,16.24
2023-08-07T18:37:58.939Z,16.24
2023-08-07T18:40:45.866Z,16.24
2023-08-07T18:43:32.945Z,16.23
2023-08-07T18:46:19.822Z,16.22
2023-08-07T18:49:06.697Z,16.22
2023-08-07T18:51:53.553Z,16.21
2023-08-07T18:54:41.056Z,16.22
2023-08-07T18:57:28.030Z,16.18
2023-08-07T19:00:15.872Z,16.16
2023-08-07T19:03:02.855Z,16.13
2023-08-07T19:05:49.904Z,16.08
2023-08-07T19:08:38.348Z,16.08
2023-08-07T19:14:13.890Z,16.03
2023-08-07T19:17:01.597Z,16.04
2023-08-07T19:19:49.631Z,16.03
2023-08-07T19:22:36.635Z,16.01
2023-08-07T19:25:23.529Z,16.01
2023-08-07T19:28:10.538Z,15.99
2023-08-07T19:31:05.534Z,16.01
2023-08-07T19:33:53.397Z,16.02
2023-08-07T19:36:41.616Z,15.98
2023-08-07T19:39:28.663Z,15.94
2023-08-07T19:42:15.639Z,15.90
2023-08-07T19:45:02.851Z,15.89
2023-08-07T19:47:49.840Z,15.89
2023-08-07T19:50:37.848Z,15.88
2023-08-07T19:53:24.735Z,15.85
2023-08-07T19:56:11.609Z,15.86
2023-08-07T19:58:58.515Z,15.86
2023-08-07T20:01:45.430Z,15.85
2023-08-07T20:04:32.814Z,15.85
2023-08-07T20:07:25.543Z,15.85
2023-08-07T20:10:13.887Z,15.85
2023-08-07T20:13:00.804Z,15.84
2023-08-07T20:15:47.793Z,15.82
2023-08-07T20:18:34.655Z,15.80
2023-08-07T20:21:21.510Z,15.76
2023-08-07T20:24:08.334Z,15.77
2023-08-07T20:26:59.135Z,15.79
2023-08-07T20:29:46.052Z,15.77
2023-08-07T20:32:32.956Z,15.71
2023-08-07T20:35:20.266Z,15.67
2023-08-07T20:38:07.132Z,15.67
2023-08-07T20:40:54.002Z,15.64
2023-08-07T20:43:40.865Z,15.62
2023-08-07T20:46:27.748Z,15.59
2023-08-07T20:49:15.109Z,15.56
2023-08-07T20:52:02.417Z,15.54
2023-08-07T20:54:49.351Z,15.52
2023-08-07T20:57:36.311Z,15.51
2023-08-07T21:00:23.164Z,15.49
2023-08-07T21:03:10.042Z,15.49
2023-08-07T21:05:57.189Z,15.47
2023-08-07T21:08:44.091Z,15.45
2023-08-07T21:11:30.977Z,15.44
2023-08-07T21:14:17.869Z,15.47
2023-08-07T21:17:05.902Z,15.45
2023-08-07T21:19:52.825Z,15.44
2023-08-07T21:22:39.808Z,15.44
2023-08-07T21:25:26.786Z,15.41
2023-08-07T21:28:13.644Z,15.38
2023-08-07T21:31:00.624Z,15.38
2023-08-07T21:33:47.514Z,15.34
2023-08-07T21:36:34.353Z,15.32
2023-08-07T21:39:21.242Z,15.31
2023-08-07T21:42:08.462Z,15.30
2023-08-07T21:44:55.309Z,15.30
2023-08-07T21:47:44.444Z,15.30
2023-08-07T21:50:32.123Z,15.31
2023-08-07T21:53:19.041Z,15.31
2023-08-07T21:56:05.945Z,15.28
2023-08-07T21:58:52.809Z,15.30
2023-08-07T22:01:39.838Z,15.29
2023-08-07T22:04:26.734Z,15.29
2023-08-07T22:07:13.704Z,15.26
2023-08-07T22:10:01.043Z,15.26
2023-08-07T22:12:47.988Z,15.23
2023-08-07T22:15:34.927Z,15.22
2023-08-07T22:18:21.913Z,15.22
2023-08-07T22:21:08.789Z,15.17
2023-08-07T22:23:55.818Z,15.11
2023-08-07T22:26:42.677Z,15.12
2023-08-07T22:29:29.661Z,15.12
2023-08-07T22:32:16.632Z,15.10
2023-08-07T22:35:04.085Z,15.10
2023-08-07T22:37:51.072Z,15.07
2023-08-07T22:40:38.005Z,15.05
2023-08-07T22:43:25.019Z,15.04
2023-08-07T22:46:11.981Z,15.03
2023-08-07T22:48:58.884Z,14.98
2023-08-07T22:51:46.012Z,14.96
2023-08-07T22:54:32.942Z,14.95
2023-08-07T22:57:19.828Z,14.94
2023-08-07T23:00:08.306Z,14.91
2023-08-07T23:02:56.572Z,14.91
2023-08-07T23:05:43.569Z,14.89
2023-08-07T23:08:30.435Z,14.87
2023-08-07T23:11:17.258Z,14.84
2023-08-07T23:14:04.455Z,14.80
2023-08-07T23:16:51.453Z,14.79
2023-08-07T23:19:38.316Z,14.77
2023-08-07T23:22:25.181Z,14.77
2023-08-07T23:25:12.073Z,14.76
2023-08-07T23:27:58.906Z,14.74
2023-08-07T23:30:45.879Z,14.72
2023-08-07T23:33:32.740Z,14.71
2023-08-07T23:36:19.620Z,14.72
2023-08-07T23:39:06.453Z,14.71
2023-08-07T23:41:53.687Z,14.65
2023-08-07T23:44:40.610Z,14.60
2023-08-07T23:47:27.520Z,14.59
2023-08-07T23:50:14.552Z,14.56
2023-08-07T23:53:01.532Z,14.52
2023-08-07T23:55:48.432Z,14.52
2023-08-07T23:58:35.284Z,14.51
